Date,TemperatureHighF,TemperatureAvgF,TemperatureLowF,DewpointHighF,DewpointAvgF,DewpointLowF,HumidityHigh,HumidityAvg,HumidityLow,PressureMaxIn,PressureMinIn,WindSpeedMaxMPH,WindSpeedAvgMPH,GustSpeedMaxMPH,PrecipitationSumIn
2013-1-1,22.4,14.9,6.5,14.6,8.4,2.5,86,75,66,30.10,29.93,19,10,26,0.00
2013-1-2,19.6,17.5,15.3,16.8,14.3,9.2,92,87,67,30.13,29.92,14,7,23,0.00
2013-1-3,29.1,23.3,18.5,25.4,19.9,16.3,96,87,75,30.08,29.83,36,10,36,0.00
2013-1-4,31.5,29.4,28.3,26.5,24.0,21.3,86,80,71,30.01,29.72,53,23,53,0.01
2013-1-5,31.7,28.7,24.9,27.8,23.4,18.9,91,81,69,30.18,29.84,19,6,19,0.00
2013-1-6,29.9,24.5,17.4,28.0,20.8,11.7,96,86,71,30.23,29.78,19,7,19,0.00
2013-1-7,39.7,30.8,18.4,31.4,24.3,13.8,91,77,62,30.25,29.84,34,12,41,0.00
2013-1-8,40.4,35.2,33.0,33.1,30.9,28.0,94,84,69,30.11,29.87,33,9,33,0.00
2013-1-9,38.2,35.4,32.6,33.5,30.0,26.3,95,81,72,30.32,29.74,43,18,43,0.00
2013-1-10,39.4,35.4,29.7,34.6,29.7,25.5,91,80,65,30.51,30.17,26,6,26,0.00
2013-1-11,41.8,38.4,36.0,41.3,37.1,33.4,99,95,84,30.18,29.64,23,5,25,2.09
2013-1-12,49.4,41.7,34.1,45.4,38.7,30.2,99,89,70,29.90,29.60,38,12,38,0.01
2013-1-13,34.5,31.0,27.7,30.6,28.7,25.6,96,91,84,29.90,29.79,14,6,14,0.01
2013-1-14,27.7,23.3,20.2,26.2,17.2,12.6,94,77,62,30.31,29.85,28,14,28,0.00
2013-1-15,27.8,22.4,15.5,22.4,16.0,9.3,93,76,62,30.33,30.01,34,14,34,0.01
2013-1-16,30.5,27.2,16.2,28.0,22.0,8.6,95,81,72,30.01,29.53,41,19,41,0.01
2013-1-17,16.1,8.1,-0.6,8.8,1.6,-6.5,82,74,59,30.26,29.92,33,10,33,0.00
2013-1-18,26.9,17.1,9.9,25.9,13.2,4.1,96,85,71,30.30,29.72,26,8,28,0.00
2013-1-19,32.6,25.4,19.8,32.1,24.3,18.1,98,95,92,29.82,29.30,29,6,29,0.00
2013-1-20,27.4,8.8,1.8,25.9,4.0,-5.2,94,81,67,30.09,29.33,37,12,37,0.00
2013-1-21,10.3,5.0,-0.3,4.8,0.9,-4.3,90,83,75,30.08,29.85,13,3,13,0.00
2013-1-22,-0.4,-7.1,-12.9,-4.3,-14.4,-19.3,83,70,56,30.24,30.00,12,3,12,0.00
2013-1-23,7.5,2.4,-4.5,3.3,-1.7,-11.0,87,83,73,30.28,30.05,15,5,15,0.00
2013-1-24,6.5,-2.1,-11.3,3.0,-7.7,-16.9,88,76,68,30.65,30.28,17,5,17,0.00
2013-1-25,18.9,12.6,4.0,16.5,9.8,0.1,92,88,82,30.48,30.01,18,5,18,0.00
2013-1-26,23.9,15.2,7.1,15.5,11.0,4.3,92,84,67,30.42,30.05,16,4,17,0.00
2013-1-27,28.8,22.2,11.2,26.7,19.2,7.8,95,88,82,30.43,30.13,25,8,25,0.00
2013-1-28,32.0,30.3,27.9,31.5,29.5,26.7,98,97,95,30.13,29.80,21,4,21,0.57
2013-1-29,37.5,31.0,24.5,37.2,30.3,23.5,99,97,95,29.99,29.43,21,5,21,2.84
2013-1-30,34.7,29.6,12.1,34.3,28.9,9.7,99,97,90,29.43,29.04,26,8,26,1.65
2013-1-31,12.1,6.6,2.8,9.7,2.6,-2.7,90,83,77,29.83,29.11,23,11,23,0.00
2013-2-1,14.0,6.0,-0.3,9.2,1.2,-5.2,91,80,75,30.10,29.83,14,4,14,0.00
2013-2-2,12.5,8.0,4.1,9.2,2.2,-0.6,91,77,56,30.05,30.00,16,7,16,0.00
2013-2-3,16.9,11.3,2.3,14.9,7.4,-1.0,92,84,70,30.01,29.75,25,7,25,0.00
2013-2-4,13.4,5.6,-5.1,6.5,0.6,-8.4,90,80,66,30.01,29.90,12,4,12,0.00
2013-2-5,22.2,14.6,7.4,20.0,10.9,1.2,93,85,72,29.94,29.67,25,7,25,0.00
2013-2-6,13.2,6.2,-2.3,8.6,1.6,-6.9,90,81,72,30.29,29.93,26,6,26,0.00
2013-2-7,15.3,10.9,6.6,12.9,8.4,3.6,91,89,86,30.32,30.19,31,14,31,0.01
2013-2-8,20.7,13.4,4.5,11.9,7.8,-0.2,88,78,64,30.41,30.18,22,6,22,0.00
2013-2-9,23.6,8.3,-6.4,19.7,4.4,-9.5,95,84,75,30.47,30.23,18,5,18,0.00
2013-2-10,34.5,27.0,15.3,32.0,24.0,13.1,97,88,81,30.24,29.61,28,6,28,0.00
2013-2-11,37.8,33.6,26.8,37.1,32.3,23.5,98,95,87,29.63,29.33,40,13,40,0.34
2013-2-12,27.6,25.7,24.4,24.0,22.0,19.4,92,86,77,29.88,29.63,33,14,34,0.00
2013-2-13,34.4,29.7,24.6,29.5,26.2,20.2,95,87,80,29.81,29.62,22,7,22,0.00
2013-2-14,34.7,31.3,26.2,33.4,30.3,24.3,98,96,93,29.71,29.58,22,4,22,0.31
2013-2-15,26.1,15.7,11.1,24.6,11.2,6.5,95,82,71,30.10,29.71,20,9,20,0.00
2013-2-16,13.3,7.0,0.5,10.5,1.3,-2.8,91,78,60,30.16,30.07,18,5,18,0.00
2013-2-17,15.5,5.4,-4.8,7.8,-0.9,-8.1,89,76,57,30.22,30.14,10,2,10,0.00
2013-2-18,33.1,26.0,11.6,32.0,20.5,5.8,96,80,72,30.14,29.52,42,10,42,1.39
2013-2-19,36.9,27.1,9.4,36.1,25.1,3.0,97,92,75,29.73,29.14,51,20,51,3.92
2013-2-20,11.2,7.1,2.9,6.0,1.0,-3.8,80,76,71,30.32,29.73,28,14,28,0.00
2013-2-21,19.0,9.0,1.3,13.4,4.0,-4.4,89,79,73,30.48,30.31,16,6,16,0.00
2013-2-22,27.1,17.5,10.1,26.1,15.0,7.0,96,90,86,30.40,29.83,38,14,38,0.02
2013-2-23,31.1,28.4,22.9,29.7,26.9,21.8,97,94,86,29.83,29.75,22,4,22,0.45
2013-2-24,33.4,24.9,15.3,27.8,22.0,13.6,97,89,76,30.10,29.81,19,5,19,0.01
2013-2-25,32.1,28.6,25.2,27.8,25.4,22.8,92,88,78,30.19,30.10,10,2,10,0.00
2013-2-26,32.3,29.3,26.5,27.3,25.8,23.9,95,86,72,30.19,29.85,30,9,30,0.00
2013-2-27,34.7,31.8,28.9,31.5,29.1,25.0,96,90,83,29.85,29.68,27,11,27,0.12
2013-2-28,34.1,28.1,18.8,30.6,22.6,12.4,93,80,64,30.08,29.68,27,10,27,0.00
2013-3-1,29.2,19.1,12.5,15.1,11.2,8.1,83,72,54,30.22,30.07,20,8,20,0.00
2013-3-2,23.7,15.6,10.9,14.6,9.5,6.0,84,77,61,30.20,30.08,22,7,22,0.00
2013-3-3,20.8,13.3,6.2,11.6,7.8,2.0,89,78,65,30.10,30.02,14,6,14,0.00
2013-3-4,26.2,14.3,2.0,13.6,7.3,-1.0,91,74,48,30.16,30.08,11,4,11,0.00
2013-3-5,30.6,22.2,12.6,24.2,14.7,8.6,86,73,56,30.19,30.06,21,6,21,0.00
2013-3-6,39.5,31.8,28.0,30.5,27.0,23.8,96,82,68,30.21,30.10,19,6,21,0.00
2013-3-7,33.2,27.2,23.0,27.5,24.2,20.2,96,88,79,30.40,30.19,20,9,20,0.00
2013-3-8,39.7,29.8,22.7,32.1,27.0,21.2,96,90,71,30.48,30.36,13,3,13,0.00
2013-3-9,40.3,32.6,24.0,32.5,28.8,23.0,98,87,61,30.37,30.04,24,5,24,0.06
2013-3-10,36.9,35.3,32.6,36.4,34.5,31.6,98,97,94,30.04,29.81,27,6,27,2.78
2013-3-11,39.8,36.0,33.9,39.5,35.6,33.1,99,98,97,29.88,29.34,38,11,38,5.49
2013-3-12,35.3,27.0,21.5,35.0,25.8,19.5,99,95,85,29.81,29.35,21,9,21,1.30
2013-3-13,23.9,19.6,14.2,19.5,14.3,8.8,93,80,63,30.12,29.80,31,13,31,0.00
2013-3-14,29.5,21.8,12.9,24.2,11.2,0.7,84,64,46,30.22,29.94,20,8,20,0.00
2013-3-15,31.5,25.4,17.8,29.3,19.2,8.5,96,77,60,29.95,29.75,29,16,29,0.00
2013-3-16,17.6,10.7,6.5,8.5,3.4,0.8,82,72,63,30.03,29.95,18,9,21,0.00
2013-3-17,20.7,13.6,6.7,17.0,4.5,-2.7,90,67,51,30.35,29.98,20,6,26,0.00
2013-3-18,30.6,19.8,8.3,26.1,15.1,4.0,95,82,67,30.27,29.55,29,13,39,0.01
2013-3-19,30.3,27.3,25.0,29.0,25.2,22.2,97,92,83,29.58,29.40,28,16,39,0.00
2013-3-20,26.4,25.5,24.3,22.6,21.3,20.2,89,84,80,29.73,29.72,28,19,28,0.00
2013-3-23,35.9,26.8,17.3,25.2,21.8,15.9,95,82,62,30.08,29.99,19,6,24,0.00
2013-3-24,36.6,29.7,22.5,24.0,21.1,18.7,89,71,49,30.08,29.85,12,4,23,0.00
2013-3-25,41.4,34.6,28.6,28.9,25.5,22.9,82,70,48,29.94,29.83,16,7,23,0.00
2013-3-26,40.3,35.7,32.5,29.3,26.5,19.6,82,70,43,30.03,29.94,22,10,26,0.00
2013-3-27,38.8,33.9,29.9,30.5,28.1,24.7,91,80,63,30.13,30.02,17,10,21,0.00
2013-3-28,40.8,35.2,31.0,30.6,27.4,17.8,94,75,44,30.21,30.14,16,7,18,0.00
2013-3-29,44.2,35.4,26.3,29.7,25.2,16.8,95,69,33,30.24,30.16,16,6,16,0.00
2013-3-30,46.9,37.2,29.7,33.7,26.0,18.4,89,66,33,30.18,29.79,25,5,25,0.01
2013-3-31,38.8,34.9,25.6,37.4,33.5,20.0,98,95,79,29.79,29.51,34,10,34,0.17
2013-4-1,25.6,20.9,17.0,21.4,14.7,9.4,93,77,60,30.02,29.61,35,19,35,0.00
2013-4-2,25.2,20.4,14.4,18.9,15.4,11.7,94,81,61,30.20,30.01,33,14,35,0.00
2013-4-3,33.4,25.3,18.5,21.6,14.0,8.1,89,64,37,30.37,30.20,22,10,22,0.00
2013-4-4,37.4,33.3,29.1,34.2,26.8,17.3,97,78,56,30.25,29.88,42,15,44,0.06
2013-4-5,33.3,27.8,23.7,27.1,18.5,11.7,87,68,52,30.22,29.95,24,12,24,0.00
2013-4-6,34.3,28.6,21.3,33.1,24.8,17.0,97,86,62,30.23,29.64,25,7,42,0.28
2013-4-7,38.0,35.4,32.9,35.0,32.3,29.4,97,89,79,30.03,29.39,38,13,38,0.52
2013-4-8,39.4,34.8,31.4,32.9,30.8,27.9,96,86,73,30.04,29.85,24,5,24,0.70
2013-4-9,40.0,35.7,33.4,36.2,33.8,32.1,98,93,83,30.09,29.97,12,4,12,0.01
2013-4-10,43.4,35.7,31.9,32.4,27.0,17.4,94,72,43,30.14,30.03,20,6,20,0.00
2013-4-11,35.3,29.2,24.8,23.7,18.1,12.5,88,63,56,30.20,29.96,42,13,42,0.01
2013-4-12,31.4,27.9,25.0,28.9,26.1,22.7,96,93,81,29.97,29.66,35,12,35,0.00
2013-4-13,37.5,30.4,26.9,31.4,28.2,26.2,97,92,69,29.85,29.67,27,6,27,0.02
2013-4-14,42.0,33.4,28.7,29.9,27.6,24.5,95,80,53,30.08,29.85,16,7,16,0.00
2013-4-15,47.1,38.2,32.6,46.6,35.8,28.3,98,91,77,30.04,29.78,30,8,30,0.40
2013-4-16,45.4,38.2,33.7,43.8,32.7,30.4,95,81,64,30.29,29.79,26,12,26,0.00
2013-4-17,44.1,36.7,29.6,32.4,30.0,27.7,95,78,59,30.44,30.15,20,6,20,0.00
2013-4-18,39.9,37.3,34.8,39.4,35.2,28.1,98,93,67,30.16,29.46,30,10,30,3.73
2013-4-19,41.7,36.2,27.2,41.3,33.2,21.8,99,89,68,29.50,29.19,63,16,63,1.75
2013-4-20,28.7,24.0,17.5,22.4,15.6,9.0,82,70,59,30.44,29.50,35,19,41,0.00
2013-4-21,38.9,30.0,20.1,29.6,21.7,10.3,93,73,35,30.63,30.43,26,5,26,0.00
2013-4-22,50.4,42.2,35.2,36.0,31.3,25.9,83,66,43,30.44,30.16,32,9,32,0.00
2013-4-23,44.9,42.3,40.2,38.4,34.5,31.3,90,74,60,30.16,29.87,31,6,31,0.05
2013-4-24,39.7,35.1,32.4,31.9,28.9,24.0,94,79,56,29.97,29.82,15,10,21,0.03
2013-4-25,38.4,35.2,32.3,37.3,31.3,25.3,97,86,68,30.25,29.91,36,9,36,0.06
2013-4-26,49.7,40.7,32.2,39.0,32.6,27.6,93,74,50,30.33,30.16,22,6,22,0.22
2013-4-27,46.6,36.5,33.9,43.9,35.4,33.1,98,96,91,30.21,30.18,12,5,13,0.00
2013-10-13,61.0,54.9,49.7,58.0,48.2,42.5,94,78,69,30.33,29.95,17,11,26,0.03
2013-10-14,57.3,49.9,45.2,44.5,42.6,38.9,92,77,54,30.42,30.28,10,4,15,0.00
2013-10-15,58.0,51.1,44.4,52.7,47.4,41.1,97,87,76,30.28,29.72,10,5,27,0.72
2013-10-16,56.8,52.7,49.6,56.2,50.7,46.3,98,93,84,29.74,29.59,21,12,33,0.06
2013-10-17,49.7,48.0,46.3,46.6,44.2,41.5,94,87,78,29.81,29.70,18,7,23,0.00
2013-10-18,52.2,48.1,43.8,45.6,42.6,39.3,87,81,72,29.76,29.69,13,7,23,0.00
2013-10-19,48.9,46.5,44.2,43.9,38.7,30.9,94,75,52,29.75,29.60,25,12,25,0.01
2013-10-20,51.1,44.8,39.2,43.6,40.2,37.0,94,84,61,29.80,29.67,24,4,24,0.12
2013-10-21,49.0,44.8,36.1,47.2,40.4,28.1,98,85,65,29.73,29.57,32,14,32,0.36
2013-10-22,43.3,38.0,32.6,35.6,32.1,25.8,97,80,59,29.80,29.59,34,15,34,0.07
2013-10-23,39.7,35.9,32.4,34.8,30.9,24.7,93,82,71,29.80,29.74,25,12,30,0.01
2013-10-24,42.6,38.7,35.9,37.5,34.2,32.0,93,84,73,30.05,29.76,26,13,26,0.00
2013-10-25,43.7,39.4,34.9,36.5,32.7,28.9,92,77,59,30.17,29.74,39,11,39,0.02
2013-10-26,45.3,41.9,37.8,42.1,36.7,30.3,93,82,64,29.86,29.48,43,19,43,0.11
2013-10-27,42.6,39.2,35.6,39.8,35.6,31.7,94,87,72,29.93,29.83,21,8,21,0.13
2013-10-28,41.5,34.1,28.7,37.7,26.0,21.0,88,72,58,30.46,29.93,26,8,26,0.00
2013-10-29,35.9,32.1,27.1,32.4,25.7,22.4,94,78,65,30.50,30.23,14,3,14,0.00
2013-10-30,49.4,41.6,34.1,46.4,39.5,32.5,96,92,85,30.23,29.87,16,3,16,0.02
2013-10-31,55.7,51.1,48.6,55.4,50.2,46.2,99,97,83,29.88,28.97,25,4,25,0.31
2013-11-1,54.1,46.6,38.9,53.8,44.5,35.8,99,92,83,29.63,28.80,32,10,37,0.56
2013-11-2,38.8,36.1,32.5,36.1,29.1,20.4,90,76,59,30.15,29.63,21,7,21,0.00
2013-11-3,38.9,33.4,28.8,33.1,23.8,18.8,82,68,54,30.43,30.15,15,4,15,0.00
2013-11-4,45.5,42.5,38.9,38.3,35.4,30.2,81,76,69,30.45,30.18,38,10,38,0.00
2013-11-5,53.6,47.5,41.7,46.9,42.0,35.4,94,81,72,30.22,30.00,24,8,28,0.04
2013-11-6,50.4,45.3,37.2,49.9,43.6,33.6,98,94,84,30.00,29.53,31,13,31,0.43
2013-11-7,38.8,36.1,33.8,34.7,32.8,30.8,94,88,75,29.99,29.86,27,16,27,0.01
2013-11-8,37.3,35.0,33.1,32.0,30.1,26.3,94,82,70,30.16,29.99,18,7,19,0.00
2013-11-9,44.1,39.7,35.0,42.5,36.8,30.2,96,89,72,30.08,29.57,41,11,41,0.24
2013-11-10,41.1,37.7,33.8,36.9,32.3,28.2,92,81,68,30.12,29.63,42,20,42,0.00
2013-11-11,39.7,30.0,21.1,36.0,25.3,14.8,92,82,72,30.32,29.87,37,18,37,0.03
2013-11-12,30.3,25.0,20.4,23.0,17.9,12.9,87,74,62,30.48,30.32,31,17,31,0.00
2013-11-13,43.4,34.8,27.8,35.5,26.2,15.4,85,71,56,30.38,29.78,53,16,53,0.00
2013-11-14,43.6,41.8,39.2,38.8,35.9,33.5,93,80,70,29.82,29.76,49,15,53,0.05
2013-11-15,48.2,42.4,39.3,41.2,38.8,37.0,97,87,75,29.92,29.79,18,5,18,0.00
2013-11-16,48.4,43.4,37.5,47.3,40.7,35.4,96,90,79,29.96,29.54,30,6,30,0.08
2013-11-17,55.1,52.5,48.4,54.2,51.4,47.3,98,96,95,29.56,29.16,36,11,36,0.43
2013-11-18,45.1,35.2,30.2,42.9,31.0,22.9,95,85,72,29.99,28.98,44,35,63,0.12
2013-11-19,30.4,26.8,24.4,23.8,21.4,19.1,90,80,72,30.39,30.01,27,5,35,0.00
2013-11-20,40.9,36.2,26.3,35.1,31.2,24.0,91,82,75,30.40,30.22,31,6,31,0.00
2013-11-21,41.5,39.7,38.2,38.2,36.2,32.9,97,87,75,30.23,30.14,16,3,21,0.00
2013-11-22,39.1,31.1,24.6,38.5,28.6,21.1,98,91,79,30.30,30.11,22,10,22,0.05
2013-11-23,29.2,18.9,12.9,25.6,12.9,3.6,93,77,60,30.46,30.14,36,18,36,0.00
2013-11-24,23.4,16.0,9.1,18.0,10.6,1.3,87,79,69,30.55,30.17,28,6,28,0.00
2013-11-25,36.3,31.3,23.4,32.1,26.6,17.7,95,83,72,30.17,29.76,49,19,49,0.00
2013-11-26,35.5,29.9,22.5,32.8,25.8,17.1,93,85,73,29.98,29.83,24,11,24,0.00
2013-11-27,22.8,18.5,13.6,19.2,11.4,8.3,90,74,58,30.17,29.95,28,10,28,0.00
2013-11-28,20.5,17.2,13.6,15.7,11.1,7.3,85,77,67,30.48,30.17,13,4,13,0.00
2013-11-29,30.8,24.3,17.1,23.0,18.7,12.3,91,79,66,30.64,30.48,19,2,19,0.00
2013-11-30,33.2,31.3,28.6,32.2,27.8,21.1,97,87,72,30.50,30.02,34,7,37,0.00
2013-12-1,32.3,29.1,26.6,31.3,25.8,22.5,96,87,80,30.13,30.02,18,3,18,0.00
2013-12-2,29.4,26.2,22.2,24.0,22.2,17.8,91,85,71,30.02,29.91,14,2,14,0.06
2013-12-3,26.5,22.9,18.9,24.8,20.2,16.1,94,89,83,30.02,29.97,25,7,25,0.00
2013-12-4,41.6,28.1,24.2,41.0,26.8,22.2,98,95,91,30.02,29.48,38,14,38,0.34
2013-12-5,45.4,33.3,19.1,44.7,28.2,9.6,99,82,66,30.00,29.40,57,26,57,0.07
2013-12-6,23.6,19.7,15.9,15.3,12.4,9.2,81,73,66,30.28,30.00,45,25,45,0.00
2013-12-7,20.2,17.3,14.8,12.8,9.6,6.2,81,72,60,30.49,30.28,36,21,36,0.00
2013-12-8,24.3,16.6,11.4,22.8,9.8,-1.1,94,75,55,30.52,30.08,28,7,28,0.00
2013-12-9,28.0,22.7,10.5,25.6,20.3,4.1,96,90,71,30.08,29.67,41,14,41,0.00
2013-12-10,14.7,11.2,8.6,11.7,7.4,3.9,91,84,73,29.97,29.76,42,12,42,0.00
2013-12-11,12.6,10.1,7.3,7.0,4.4,1.9,81,77,71,30.27,29.97,35,20,35,0.00
2013-12-12,16.1,12.3,8.6,9.2,5.8,2.0,82,75,63,30.25,29.95,41,23,41,0.00
2013-12-13,15.3,3.2,-1.7,9.6,-3.2,-8.0,87,74,62,30.47,29.95,37,5,37,0.00
2013-12-14,10.6,6.7,1.4,8.0,3.5,-4.1,90,86,77,30.49,29.97,25,11,30,0.00
2013-12-15,12.6,8.4,1.3,8.7,4.8,-3.5,90,85,75,30.00,29.72,17,6,17,0.00
2013-12-16,17.2,1.4,-9.0,14.6,-3.6,-13.5,92,79,68,30.19,29.99,15,3,15,0.00
2013-12-17,21.2,19.3,17.2,19.1,17.5,14.5,94,93,89,30.00,29.79,28,3,28,0.00
2013-12-18,26.5,20.4,17.3,22.9,16.5,12.9,94,85,70,29.97,29.75,24,9,24,0.00
2013-12-19,28.9,24.0,16.3,25.4,20.8,12.2,94,87,78,30.07,29.70,19,7,19,0.00
2013-12-20,19.2,16.6,13.5,16.7,14.0,11.4,92,89,84,30.05,29.88,18,7,18,0.00
2013-12-21,22.9,19.8,17.0,18.2,16.4,14.4,93,87,76,30.06,29.84,28,5,28,0.00
2013-12-22,21.1,14.3,5.9,14.6,10.6,2.9,92,85,74,30.10,29.85,36,12,36,0.00
2013-12-23,6.8,2.7,-3.9,4.0,-1.2,-8.1,89,83,78,30.39,30.10,14,5,14,0.00
2013-12-24,3.0,-4.7,-11.3,-4.2,-10.4,-22.5,85,76,57,30.54,30.39,9,2,9,0.00
2013-12-25,23.3,15.8,-9.9,20.5,12.9,-14.5,93,88,75,30.49,30.01,38,9,38,0.00
2013-12-26,22.0,15.9,11.2,15.7,11.0,7.3,90,81,71,30.18,29.99,27,6,27,0.00
2013-12-27,33.2,19.1,6.9,30.3,15.4,3.5,91,85,81,30.23,29.82,17,5,17,0.00
2013-12-28,34.6,32.6,26.9,32.2,30.6,25.1,96,92,88,29.96,29.77,26,8,26,0.00
2013-12-29,26.6,8.5,-4.6,25.1,5.2,-9.5,94,86,78,30.06,29.73,26,10,26,0.00
2013-12-30,11.0,-0.0,-14.8,6.0,-4.5,-18.2,86,81,76,30.25,30.06,12,3,15,0.00
2013-12-31,10.4,6.6,2.0,4.4,1.7,-3.0,88,80,63,30.26,29.97,29,10,29,0.00
2014-1-1,2.0,-5.9,-12.3,-1.9,-12.3,-17.0,86,73,59,30.53,30.25,16,4,20,0.00
2014-1-2,-2.2,-7.5,-13.4,-9.7,-12.9,-17.4,85,77,63,30.48,30.37,19,4,19,0.00